createdAt,value
2019-02-26T00:00:07.648Z,0.00
2019-02-26T00:01:07.197Z,0.00
2019-02-26T00:02:07.186Z,0.00
2019-02-26T00:03:07.186Z,0.00
2019-02-26T00:04:07.172Z,0.00
2019-02-26T00:05:07.149Z,0.00
2019-02-26T00:06:07.175Z,0.00
2019-02-26T00:07:07.129Z,0.00
2019-02-26T00:08:07.133Z,0.00
2019-02-26T00:09:07.119Z,0.00
2019-02-26T00:10:07.197Z,0.00
2019-02-26T00:11:08.480Z,0.00
2019-02-26T00:12:07.074Z,0.00
2019-02-26T00:13:07.088Z,0.00
2019-02-26T00:14:07.151Z,0.00
2019-02-26T00:15:07.044Z,0.00
2019-02-26T00:16:07.998Z,0.00
2019-02-26T00:17:10.419Z,0.00
2019-02-26T00:18:09.466Z,0.00
2019-02-26T00:19:07.445Z,0.00
2019-02-26T00:20:07.987Z,0.00
2019-02-26T00:21:07.059Z,0.00
2019-02-26T00:22:07.807Z,0.00
2019-02-26T00:23:06.965Z,0.00
2019-02-26T00:24:07.873Z,0.00
2019-02-26T00:25:08.510Z,0.00
2019-02-26T00:26:06.930Z,0.00
2019-02-26T00:27:07.639Z,0.00
2019-02-26T00:28:06.951Z,0.00
2019-02-26T00:29:08.392Z,0.00
2019-02-26T00:30:08.679Z,0.00
2019-02-26T00:31:06.880Z,0.00
2019-02-26T00:32:07.598Z,0.00
2019-02-26T00:33:06.855Z,0.00
2019-02-26T00:34:08.295Z,0.00
2019-02-26T00:35:06.833Z,0.00
2019-02-26T00:36:08.920Z,0.00
2019-02-26T00:37:08.515Z,0.00
2019-02-26T00:38:08.878Z,0.00
2019-02-26T00:39:07.272Z,0.00
2019-02-26T00:40:07.897Z,0.00
2019-02-26T00:41:06.766Z,0.00
2019-02-26T00:42:06.787Z,0.00
2019-02-26T00:43:06.751Z,0.00
2019-02-26T00:44:06.785Z,0.00
2019-02-26T00:45:07.923Z,0.00
2019-02-26T00:46:08.127Z,0.00
2019-02-26T00:47:08.860Z,0.00
2019-02-26T00:48:06.693Z,0.00
2019-02-26T00:49:07.594Z,0.00
2019-02-26T00:50:07.386Z,0.00
2019-02-26T00:51:06.656Z,0.00
2019-02-26T00:52:08.547Z,0.00
2019-02-26T00:53:06.643Z,0.00
2019-02-26T00:54:06.735Z,0.00
2019-02-26T00:55:07.121Z,0.00
2019-02-26T00:56:08.003Z,0.00
2019-02-26T00:57:08.635Z,0.00
2019-02-26T00:58:08.538Z,0.00
2019-02-26T00:59:06.598Z,0.00
2019-02-26T01:00:07.727Z,0.00
2019-02-26T01:01:10.235Z,0.00
2019-02-26T01:02:06.542Z,0.00
2019-02-26T01:03:08.425Z,0.00
2019-02-26T01:04:06.532Z,0.00
2019-02-26T01:05:08.664Z,0.00
2019-02-26T01:06:07.989Z,0.00
2019-02-26T01:07:07.539Z,0.00
2019-02-26T01:08:10.614Z,0.00
2019-02-26T01:09:08.726Z,0.00
2019-02-26T01:10:06.463Z,0.00
2019-02-26T01:11:08.224Z,0.00
2019-02-26T01:12:07.218Z,0.00
2019-02-26T01:13:07.258Z,0.00
2019-02-26T01:14:06.434Z,0.00
2019-02-26T01:15:07.234Z,0.00
2019-02-26T01:16:06.433Z,0.00
2019-02-26T01:17:08.182Z,0.00
2019-02-26T01:18:06.876Z,0.00
2019-02-26T01:19:08.527Z,0.00
2019-02-26T01:20:06.368Z,0.00
2019-02-26T01:21:06.377Z,0.00
2019-02-26T01:22:06.322Z,0.00
2019-02-26T01:23:06.328Z,0.00
2019-02-26T01:24:06.968Z,0.00
2019-02-26T01:25:06.295Z,0.00
2019-02-26T01:26:06.313Z,0.00
2019-02-26T01:27:06.283Z,0.00
2019-02-26T01:28:06.274Z,0.00
2019-02-26T01:29:06.273Z,0.00
2019-02-26T01:30:06.245Z,0.00
2019-02-26T01:31:07.376Z,0.00
2019-02-26T01:32:08.913Z,0.00
2019-02-26T01:33:08.064Z,0.00
2019-02-26T01:34:06.263Z,0.00
2019-02-26T01:35:08.197Z,0.00
2019-02-26T01:36:06.194Z,0.00
2019-02-26T01:37:08.191Z,0.00
2019-02-26T01:38:06.210Z,0.00
2019-02-26T01:39:09.297Z,0.00
2019-02-26T01:40:09.382Z,0.00
2019-02-26T01:41:06.125Z,0.00
2019-02-26T01:42:06.120Z,0.00
2019-02-26T01:43:06.116Z,0.00
2019-02-26T01:44:06.120Z,0.00
2019-02-26T01:45:06.088Z,0.00
2019-02-26T01:46:07.777Z,0.00
2019-02-26T01:47:06.062Z,0.00
2019-02-26T01:48:08.347Z,0.00
2019-02-26T01:49:06.052Z,0.00
2019-02-26T01:50:07.107Z,0.00
2019-02-26T01:51:06.022Z,0.00
2019-02-26T01:52:06.644Z,0.00
2019-02-26T01:53:06.009Z,0.00
2019-02-26T01:54:08.061Z,0.00
2019-02-26T01:55:05.991Z,0.00
2019-02-26T01:56:05.995Z,0.00
2019-02-26T01:57:08.608Z,0.00
2019-02-26T01:58:05.951Z,0.00
2019-02-26T01:59:05.937Z,0.00
2019-02-26T02:00:06.916Z,0.00
2019-02-26T02:01:05.912Z,0.00
2019-02-26T02:02:05.901Z,0.00
2019-02-26T02:03:05.893Z,0.00
2019-02-26T02:04:05.890Z,0.00
2019-02-26T02:05:07.093Z,0.00
2019-02-26T02:06:06.638Z,0.00
2019-02-26T02:07:06.082Z,0.00
2019-02-26T02:08:09.040Z,0.00
2019-02-26T02:09:09.301Z,0.00
2019-02-26T02:10:05.839Z,0.00
2019-02-26T02:11:07.562Z,0.00
2019-02-26T02:12:07.144Z,0.00
2019-02-26T02:13:09.245Z,0.00
2019-02-26T02:14:06.505Z,0.00
2019-02-26T02:15:05.781Z,0.00
2019-02-26T02:16:06.795Z,0.00
2019-02-26T02:17:06.538Z,0.00
2019-02-26T02:18:06.203Z,0.00
2019-02-26T02:19:05.732Z,0.00
2019-02-26T02:20:07.981Z,0.00
2019-02-26T02:21:05.710Z,0.00
2019-02-26T02:22:05.700Z,0.00
2019-02-26T02:23:07.119Z,0.00
2019-02-26T02:24:10.737Z,0.00
2019-02-26T02:25:05.683Z,0.00
2019-02-26T02:26:07.107Z,0.00
2019-02-26T02:27:05.647Z,0.00
2019-02-26T02:28:05.674Z,0.00
2019-02-26T02:29:05.625Z,0.00
2019-02-26T02:30:05.639Z,0.00
2019-02-26T02:31:05.603Z,0.00
2019-02-26T02:32:07.589Z,0.00
2019-02-26T02:33:05.585Z,0.00
2019-02-26T02:34:05.580Z,0.00
2019-02-26T02:35:06.852Z,0.00
2019-02-26T02:36:05.538Z,0.00
2019-02-26T02:37:05.530Z,0.00
2019-02-26T02:38:05.531Z,0.00
2019-02-26T02:39:10.316Z,0.00
2019-02-26T02:40:05.545Z,0.00
2019-02-26T02:41:05.519Z,0.00
2019-02-26T02:42:05.487Z,0.00
2019-02-26T02:43:09.738Z,0.00
2019-02-26T02:44:05.476Z,0.00
2019-02-26T02:45:07.632Z,0.00
2019-02-26T02:46:05.435Z,0.00
2019-02-26T02:47:06.786Z,0.00
2019-02-26T02:48:06.350Z,0.00
2019-02-26T02:49:07.506Z,0.00
2019-02-26T02:50:08.709Z,0.00
2019-02-26T02:51:07.993Z,0.00
2019-02-26T02:52:07.219Z,0.00
2019-02-26T02:53:05.359Z,0.00
2019-02-26T02:54:05.351Z,0.00
2019-02-26T02:55:06.987Z,0.00
2019-02-26T02:56:06.359Z,0.00
2019-02-26T02:57:07.586Z,0.00
2019-02-26T02:58:05.309Z,0.00
2019-02-26T02:59:05.953Z,0.00
2019-02-26T03:00:08.394Z,0.00
2019-02-26T03:01:05.321Z,0.00
2019-02-26T03:02:05.280Z,0.00
2019-02-26T03:03:05.253Z,0.00
2019-02-26T03:04:05.265Z,0.00
2019-02-26T03:05:05.262Z,0.00
2019-02-26T03:06:07.619Z,0.00
2019-02-26T03:07:05.222Z,0.00
2019-02-26T03:08:05.203Z,0.00
2019-02-26T03:09:06.864Z,0.00
2019-02-26T03:10:06.890Z,0.00
2019-02-26T03:11:05.175Z,0.00
2019-02-26T03:12:05.166Z,0.00
2019-02-26T03:13:05.148Z,0.00
2019-02-26T03:14:06.260Z,0.00
2019-02-26T03:15:07.453Z,0.00
2019-02-26T03:16:05.121Z,0.00
2019-02-26T03:17:06.408Z,0.00
2019-02-26T03:18:08.558Z,0.00
2019-02-26T03:19:07.131Z,0.00
2019-02-26T03:20:07.396Z,0.00
2019-02-26T03:21:05.085Z,0.00
2019-02-26T03:22:07.136Z,0.00
2019-02-26T03:23:07.307Z,0.00
2019-02-26T03:24:06.116Z,0.00
2019-02-26T03:25:05.033Z,0.00
2019-02-26T03:26:05.025Z,0.00
2019-02-26T03:27:05.001Z,0.00
2019-02-26T03:28:04.993Z,0.00
2019-02-26T03:29:04.998Z,0.00
2019-02-26T03:30:05.004Z,0.00
2019-02-26T03:31:05.075Z,0.00
2019-02-26T03:32:04.964Z,0.00
2019-02-26T03:33:05.027Z,0.00
2019-02-26T03:34:10.425Z,0.00
2019-02-26T03:35:07.350Z,0.00
2019-02-26T03:36:06.161Z,0.00
2019-02-26T03:37:06.277Z,0.00
2019-02-26T03:38:04.916Z,0.00
2019-02-26T03:39:04.908Z,0.00
2019-02-26T03:40:06.542Z,0.00
2019-02-26T03:41:04.875Z,0.00
2019-02-26T03:42:04.861Z,0.00
2019-02-26T03:43:07.479Z,0.00
2019-02-26T03:44:06.399Z,0.00
2019-02-26T03:45:04.807Z,0.00
2019-02-26T03:46:04.805Z,0.00
2019-02-26T03:47:04.790Z,0.00
2019-02-26T03:48:04.786Z,0.00
2019-02-26T03:49:04.771Z,0.00
2019-02-26T03:50:08.531Z,0.00
2019-02-26T03:51:04.757Z,0.00
2019-02-26T03:52:04.737Z,0.00
2019-02-26T03:53:09.061Z,0.00
2019-02-26T03:54:04.709Z,0.00
2019-02-26T03:55:06.812Z,0.00
2019-02-26T03:56:08.146Z,0.00
2019-02-26T03:57:04.678Z,0.00
2019-02-26T03:58:04.681Z,0.00
2019-02-26T03:59:06.797Z,0.00
2019-02-26T04:00:08.177Z,0.00
2019-02-26T04:01:07.503Z,0.00
2019-02-26T04:02:04.748Z,0.00
2019-02-26T04:03:05.929Z,0.00
2019-02-26T04:04:05.377Z,0.00
2019-02-26T04:05:08.260Z,0.00
2019-02-26T04:06:07.517Z,0.00
2019-02-26T04:07:07.165Z,0.00
2019-02-26T04:08:04.839Z,0.00
2019-02-26T04:09:04.573Z,0.00
2019-02-26T04:10:04.604Z,0.00
2019-02-26T04:11:04.667Z,0.00
2019-02-26T04:12:07.473Z,0.00
2019-02-26T04:13:04.561Z,0.00
2019-02-26T04:14:04.560Z,0.00
2019-02-26T04:15:05.785Z,0.00
2019-02-26T04:16:04.734Z,0.00
2019-02-26T04:17:06.433Z,0.00
2019-02-26T04:18:04.492Z,0.00
2019-02-26T04:19:05.876Z,0.00
2019-02-26T04:20:05.766Z,0.00
2019-02-26T04:21:06.025Z,0.00
2019-02-26T04:22:04.458Z,0.00
2019-02-26T04:23:04.878Z,0.00
2019-02-26T04:24:05.920Z,0.00
2019-02-26T04:25:06.318Z,0.00
2019-02-26T04:26:04.448Z,0.00
2019-02-26T04:27:05.144Z,0.00
2019-02-26T04:28:05.212Z,0.00
2019-02-26T04:29:04.373Z,0.00
2019-02-26T04:30:05.919Z,0.00
2019-02-26T04:31:04.374Z,0.00
2019-02-26T04:32:04.326Z,0.00
2019-02-26T04:33:06.582Z,0.00
2019-02-26T04:34:07.925Z,0.00
2019-02-26T04:35:04.286Z,0.00
2019-02-26T04:36:04.312Z,0.00
2019-02-26T04:37:04.742Z,0.00
2019-02-26T04:38:06.337Z,0.00
2019-02-26T04:39:04.250Z,0.00
2019-02-26T04:40:07.505Z,0.00
2019-02-26T04:41:08.842Z,0.00
2019-02-26T04:42:05.573Z,0.00
2019-02-26T04:43:04.695Z,0.00
2019-02-26T04:44:06.109Z,0.00
2019-02-26T04:45:05.884Z,0.00
2019-02-26T04:46:05.053Z,0.00
2019-02-26T04:47:05.918Z,0.00
2019-02-26T04:48:04.142Z,0.00
2019-02-26T04:49:04.142Z,0.00
2019-02-26T04:50:06.170Z,0.00
2019-02-26T04:51:04.153Z,0.00
2019-02-26T04:52:05.563Z,0.00
2019-02-26T04:53:05.817Z,0.00
2019-02-26T04:54:04.131Z,0.00
2019-02-26T04:55:04.067Z,0.00
2019-02-26T04:56:06.322Z,0.00
2019-02-26T04:57:05.850Z,0.00
2019-02-26T04:58:04.111Z,0.00
2019-02-26T04:59:06.231Z,0.00
2019-02-26T05:00:05.193Z,0.00
2019-02-26T05:01:04.793Z,0.00
2019-02-26T05:02:04.044Z,0.00
2019-02-26T05:03:05.106Z,0.00
2019-02-26T05:04:04.066Z,0.00
2019-02-26T05:05:06.336Z,0.00
2019-02-26T05:06:07.348Z,0.00
2019-02-26T05:07:05.191Z,0.00
2019-02-26T05:08:04.803Z,0.00
2019-02-26T05:09:05.566Z,0.00
2019-02-26T05:10:04.268Z,0.00
2019-02-26T05:11:03.966Z,0.00
2019-02-26T05:12:03.916Z,0.00
2019-02-26T05:13:06.435Z,0.00
2019-02-26T05:14:03.945Z,0.00
2019-02-26T05:15:03.855Z,0.00
2019-02-26T05:16:03.886Z,0.00
2019-02-26T05:17:03.839Z,0.00
2019-02-26T05:18:03.831Z,0.00
2019-02-26T05:19:03.869Z,0.00
2019-02-26T05:20:06.310Z,0.00
2019-02-26T05:21:05.213Z,0.00
2019-02-26T05:22:04.525Z,0.00
2019-02-26T05:23:06.197Z,0.00
2019-02-26T05:24:03.795Z,0.00
2019-02-26T05:25:04.835Z,0.00
2019-02-26T05:26:05.550Z,0.00
2019-02-26T05:27:03.773Z,0.00
2019-02-26T05:28:06.267Z,0.00
2019-02-26T05:29:03.724Z,0.00
2019-02-26T05:30:03.752Z,0.00
2019-02-26T05:31:06.407Z,0.00
2019-02-26T05:32:04.765Z,0.00
2019-02-26T05:33:05.586Z,0.00
2019-02-26T05:34:03.675Z,0.00
2019-02-26T05:35:03.680Z,0.00
2019-02-26T05:36:06.062Z,0.00
2019-02-26T05:37:04.707Z,0.00
2019-02-26T05:38:06.830Z,0.00
2019-02-26T05:39:03.635Z,0.00
2019-02-26T05:40:03.673Z,0.00
2019-02-26T05:41:03.571Z,0.00
2019-02-26T05:42:06.185Z,0.00
2019-02-26T05:43:04.827Z,0.00
2019-02-26T05:44:07.155Z,0.00
2019-02-26T05:45:05.962Z,0.00
2019-02-26T05:46:04.044Z,0.00
2019-02-26T05:47:03.537Z,0.00
2019-02-26T05:48:03.508Z,0.00
2019-02-26T05:49:05.849Z,0.00
2019-02-26T05:50:06.217Z,0.00
2019-02-26T05:51:05.692Z,0.00
2019-02-26T05:52:04.237Z,0.00
2019-02-26T05:53:05.519Z,0.00
2019-02-26T05:54:07.777Z,0.00
2019-02-26T05:55:03.435Z,0.00
2019-02-26T05:56:03.442Z,0.00
2019-02-26T05:57:04.793Z,0.00
2019-02-26T05:58:03.587Z,0.00
2019-02-26T05:59:06.826Z,8.00
2019-02-26T06:00:03.422Z,0.00
2019-02-26T06:01:03.373Z,0.00
2019-02-26T06:02:03.396Z,0.00
2019-02-26T06:03:06.163Z,0.00
2019-02-26T06:04:04.781Z,0.00
2019-02-26T06:05:03.349Z,0.00
2019-02-26T06:06:03.369Z,0.00
2019-02-26T06:07:04.754Z,4.00
2019-02-26T06:08:03.329Z,8.00
2019-02-26T06:09:05.704Z,0.00
2019-02-26T06:10:03.276Z,0.00
2019-02-26T06:11:03.299Z,0.00
2019-02-26T06:12:03.293Z,0.00
2019-02-26T06:13:05.014Z,68.00
2019-02-26T06:14:09.076Z,84.00
2019-02-26T06:15:05.904Z,84.00
2019-02-26T06:16:05.386Z,84.00
2019-02-26T06:17:03.231Z,84.00
2019-02-26T06:18:03.212Z,80.00
2019-02-26T06:19:03.278Z,80.00
2019-02-26T06:20:05.608Z,80.00
2019-02-26T06:21:03.306Z,84.00
2019-02-26T06:22:03.173Z,84.00
2019-02-26T06:23:03.152Z,84.00
2019-02-26T06:24:03.237Z,84.00
2019-02-26T06:25:08.171Z,88.00
2019-02-26T06:26:05.996Z,84.00
2019-02-26T06:27:03.256Z,84.00
2019-02-26T06:28:06.933Z,88.00
2019-02-26T06:29:03.068Z,84.00
2019-02-26T06:30:06.353Z,88.00
2019-02-26T06:31:03.050Z,88.00
2019-02-26T06:32:05.199Z,88.00
2019-02-26T06:33:04.345Z,88.00
2019-02-26T06:34:05.631Z,92.00
2019-02-26T06:35:06.121Z,88.00
2019-02-26T06:36:04.682Z,92.00
2019-02-26T06:37:02.990Z,92.00
2019-02-26T06:38:04.584Z,92.00
2019-02-26T06:39:04.211Z,92.00
2019-02-26T06:40:05.139Z,96.00
2019-02-26T06:41:02.956Z,92.00
2019-02-26T06:42:03.476Z,96.00
2019-02-26T06:43:02.937Z,96.00
2019-02-26T06:44:02.913Z,100.00
2019-02-26T06:45:03.973Z,96.00
2019-02-26T06:46:04.907Z,100.00
2019-02-26T06:47:04.716Z,100.00
2019-02-26T06:48:02.889Z,92.00
2019-02-26T06:49:02.855Z,72.00
2019-02-26T06:50:03.099Z,100.00
2019-02-26T06:51:04.696Z,100.00
2019-02-26T06:52:02.843Z,104.00
2019-02-26T06:53:04.639Z,80.00
2019-02-26T06:54:02.821Z,100.00
2019-02-26T06:55:03.595Z,80.00
2019-02-26T06:56:02.805Z,108.00
2019-02-26T06:57:02.773Z,104.00
2019-02-26T06:58:02.796Z,108.00
2019-02-26T06:59:03.618Z,108.00
2019-02-26T07:00:04.217Z,112.00
2019-02-26T07:01:02.757Z,112.00
2019-02-26T07:02:02.726Z,112.00
2019-02-26T07:03:02.827Z,112.00
2019-02-26T07:04:02.714Z,112.00
2019-02-26T07:05:02.704Z,116.00
2019-02-26T07:06:04.856Z,112.00
2019-02-26T07:07:04.426Z,116.00
2019-02-26T07:08:04.806Z,116.00
2019-02-26T07:09:02.670Z,116.00
2019-02-26T07:10:02.656Z,116.00
2019-02-26T07:11:03.844Z,116.00
2019-02-26T07:12:02.678Z,120.00
2019-02-26T07:13:05.047Z,120.00
2019-02-26T07:14:03.599Z,116.00
2019-02-26T07:15:02.665Z,116.00
2019-02-26T07:16:04.690Z,120.00
2019-02-26T07:17:02.569Z,120.00
2019-02-26T07:18:05.094Z,120.00
2019-02-26T07:19:03.920Z,120.00
2019-02-26T07:20:03.273Z,120.00
2019-02-26T07:21:02.636Z,124.00
2019-02-26T07:22:02.559Z,120.00
2019-02-26T07:23:03.905Z,124.00
2019-02-26T07:24:03.462Z,124.00
2019-02-26T07:25:02.548Z,128.00
2019-02-26T07:26:02.465Z,124.00
2019-02-26T07:27:04.183Z,124.00
2019-02-26T07:28:02.975Z,128.00
2019-02-26T07:29:03.452Z,128.00
2019-02-26T07:30:02.486Z,128.00
2019-02-26T07:31:03.286Z,124.00
2019-02-26T07:32:02.407Z,128.00
2019-02-26T07:33:03.114Z,128.00
2019-02-26T07:34:03.190Z,128.00
2019-02-26T07:35:04.032Z,128.00
2019-02-26T07:36:04.197Z,132.00
2019-02-26T07:37:04.126Z,132.00
2019-02-26T07:38:03.555Z,132.00
2019-02-26T07:39:02.351Z,132.00
2019-02-26T07:40:03.780Z,136.00
2019-02-26T07:41:03.790Z,132.00
2019-02-26T07:42:02.303Z,136.00
2019-02-26T07:43:04.864Z,132.00
2019-02-26T07:44:02.285Z,136.00
2019-02-26T07:45:02.292Z,136.00
2019-02-26T07:46:02.318Z,140.00
2019-02-26T07:47:03.674Z,136.00
2019-02-26T07:48:02.250Z,140.00
2019-02-26T07:49:04.773Z,140.00
2019-02-26T07:50:04.631Z,140.00
2019-02-26T07:51:02.290Z,140.00
2019-02-26T07:52:03.875Z,140.00
2019-02-26T07:53:02.271Z,144.00
2019-02-26T07:54:02.234Z,140.00
2019-02-26T07:55:03.707Z,140.00
2019-02-26T07:56:04.409Z,140.00
2019-02-26T07:57:02.798Z,144.00
2019-02-26T07:58:02.206Z,144.00
2019-02-26T07:59:06.784Z,140.00
2019-02-26T08:00:02.138Z,144.00
2019-02-26T08:01:02.188Z,144.00
2019-02-26T08:02:03.789Z,144.00
2019-02-26T08:03:04.475Z,148.00
2019-02-26T08:04:02.103Z,144.00
2019-02-26T08:05:02.049Z,144.00
2019-02-26T08:06:04.836Z,148.00
2019-02-26T08:07:03.753Z,148.00
2019-02-26T08:08:02.113Z,148.00
2019-02-26T08:09:04.638Z,144.00
2019-02-26T08:10:02.089Z,148.00
2019-02-26T08:11:02.133Z,148.00
2019-02-26T08:12:04.245Z,152.00
2019-02-26T08:13:03.334Z,152.00
2019-02-26T08:14:02.069Z,152.00
2019-02-26T08:15:03.099Z,152.00
2019-02-26T08:16:05.026Z,156.00
2019-02-26T08:17:03.895Z,152.00
2019-02-26T08:18:03.453Z,156.00
2019-02-26T08:19:01.912Z,156.00
2019-02-26T08:20:04.276Z,156.00
2019-02-26T08:21:02.997Z,152.00
2019-02-26T08:22:01.898Z,156.00
2019-02-26T08:23:01.863Z,156.00
2019-02-26T08:24:01.902Z,156.00
2019-02-26T08:25:01.840Z,156.00
2019-02-26T08:26:02.285Z,156.00
2019-02-26T08:27:03.389Z,156.00
2019-02-26T08:28:01.828Z,160.00
2019-02-26T08:29:05.113Z,160.00
2019-02-26T08:30:01.802Z,160.00
2019-02-26T08:31:02.776Z,160.00
2019-02-26T08:32:02.070Z,156.00
2019-02-26T08:33:04.367Z,156.00
2019-02-26T08:34:01.775Z,160.00
2019-02-26T08:35:01.803Z,160.00
2019-02-26T08:36:01.756Z,160.00
2019-02-26T08:37:01.723Z,160.00
2019-02-26T08:38:05.620Z,160.00
2019-02-26T08:39:01.686Z,160.00
2019-02-26T08:40:01.702Z,164.00
2019-02-26T08:41:01.666Z,164.00
2019-02-26T08:42:01.717Z,160.00
2019-02-26T08:43:01.655Z,164.00
2019-02-26T08:44:01.849Z,164.00
2019-02-26T08:45:02.265Z,164.00
2019-02-26T08:46:01.612Z,164.00
2019-02-26T08:47:06.045Z,164.00
2019-02-26T08:48:01.600Z,164.00
2019-02-26T08:49:08.044Z,164.00
2019-02-26T08:50:03.986Z,168.00
2019-02-26T08:51:05.388Z,168.00
2019-02-26T08:52:01.574Z,168.00
2019-02-26T08:53:01.575Z,172.00
2019-02-26T08:54:01.552Z,168.00
2019-02-26T08:55:01.534Z,168.00
2019-02-26T08:56:03.962Z,168.00
2019-02-26T08:57:01.596Z,168.00
2019-02-26T08:58:01.494Z,172.00
2019-02-26T08:59:03.613Z,172.00
2019-02-26T09:00:01.549Z,172.00
2019-02-26T09:01:01.516Z,172.00
2019-02-26T09:02:01.517Z,172.00
2019-02-26T09:03:01.525Z,172.00
2019-02-26T09:04:01.514Z,172.00
2019-02-26T09:05:04.463Z,172.00
2019-02-26T09:06:10.875Z,172.00
2019-02-26T09:07:02.147Z,172.00
2019-02-26T09:08:01.438Z,172.00
2019-02-26T09:09:02.701Z,172.00
2019-02-26T09:10:01.459Z,172.00
2019-02-26T09:11:03.369Z,176.00
2019-02-26T09:12:03.204Z,176.00
2019-02-26T09:13:01.704Z,172.00
2019-02-26T09:14:04.321Z,172.00
2019-02-26T09:15:01.355Z,176.00
2019-02-26T09:16:03.039Z,176.00
2019-02-26T09:17:02.072Z,176.00
2019-02-26T09:18:01.284Z,176.00
2019-02-26T09:19:01.692Z,180.00
2019-02-26T09:20:09.366Z,176.00
2019-02-26T09:21:01.330Z,176.00
2019-02-26T09:22:01.426Z,176.00
2019-02-26T09:23:01.640Z,176.00
2019-02-26T09:24:02.605Z,180.00
2019-02-26T09:25:04.369Z,180.00
2019-02-26T09:26:04.445Z,176.00
2019-02-26T09:27:03.328Z,176.00
2019-02-26T09:28:01.188Z,180.00
2019-02-26T09:29:01.244Z,180.00
2019-02-26T09:30:03.281Z,180.00
2019-02-26T09:31:04.049Z,180.00
2019-02-26T09:32:01.156Z,176.00
2019-02-26T09:33:03.160Z,180.00
2019-02-26T09:34:01.099Z,180.00
2019-02-26T09:35:04.106Z,180.00
2019-02-26T09:36:01.113Z,180.00
2019-02-26T09:37:03.031Z,180.00
2019-02-26T09:38:01.167Z,140.00
2019-02-26T09:39:03.274Z,184.00
2019-02-26T09:40:02.839Z,180.00
2019-02-26T09:41:01.076Z,180.00
2019-02-26T09:42:02.245Z,184.00
2019-02-26T09:43:01.439Z,184.00
2019-02-26T09:44:03.850Z,180.00
2019-02-26T09:45:00.980Z,184.00
2019-02-26T09:46:01.261Z,184.00
2019-02-26T09:47:03.048Z,184.00
2019-02-26T09:48:01.549Z,184.00
2019-02-26T09:49:03.150Z,184.00
2019-02-26T09:50:02.835Z,184.00
2019-02-26T09:51:02.149Z,184.00
2019-02-26T09:52:01.621Z,184.00
2019-02-26T09:53:00.994Z,184.00
2019-02-26T09:54:00.910Z,184.00
2019-02-26T09:55:00.883Z,188.00
2019-02-26T09:56:00.900Z,184.00
2019-02-26T09:57:00.885Z,184.00
2019-02-26T09:58:02.572Z,188.00
2019-02-26T09:59:02.377Z,188.00
2019-02-26T10:00:03.355Z,184.00
2019-02-26T10:01:00.829Z,188.00
2019-02-26T10:02:01.730Z,188.00
2019-02-26T10:03:02.637Z,188.00
2019-02-26T10:04:01.433Z,188.00
2019-02-26T10:05:00.794Z,188.00
2019-02-26T10:06:00.778Z,188.00
2019-02-26T10:07:02.256Z,188.00
2019-02-26T10:08:03.499Z,184.00
2019-02-26T10:09:00.859Z,188.00
2019-02-26T10:10:03.415Z,184.00
2019-02-26T10:11:02.767Z,188.00
2019-02-26T10:12:02.681Z,188.00
2019-02-26T10:13:02.845Z,188.00
2019-02-26T10:14:02.729Z,188.00
2019-02-26T10:15:02.437Z,188.00
2019-02-26T10:16:01.980Z,188.00
2019-02-26T10:17:00.723Z,188.00
2019-02-26T10:18:03.492Z,188.00
2019-02-26T10:19:00.663Z,188.00
2019-02-26T10:20:01.737Z,188.00
2019-02-26T10:21:00.623Z,188.00
2019-02-26T10:22:02.865Z,188.00
2019-02-26T10:23:03.559Z,196.00
2019-02-26T10:24:02.075Z,192.00
2019-02-26T10:25:00.594Z,192.00
2019-02-26T10:26:02.819Z,196.00
2019-02-26T10:27:03.016Z,196.00
2019-02-26T10:28:05.792Z,184.00
2019-02-26T10:29:04.575Z,188.00
2019-02-26T10:30:02.933Z,184.00
2019-02-26T10:31:04.395Z,196.00
2019-02-26T10:32:00.550Z,200.00
2019-02-26T10:33:02.736Z,200.00
2019-02-26T10:34:02.871Z,196.00
2019-02-26T10:35:00.483Z,196.00
2019-02-26T10:36:00.581Z,196.00
2019-02-26T10:37:00.438Z,196.00
2019-02-26T10:38:03.623Z,200.00
2019-02-26T10:39:02.822Z,200.00
2019-02-26T10:40:00.413Z,200.00
2019-02-26T10:41:01.831Z,196.00
2019-02-26T10:42:02.556Z,200.00
2019-02-26T10:43:00.378Z,200.00
2019-02-26T10:44:00.361Z,200.00
2019-02-26T10:45:00.370Z,204.00
2019-02-26T10:46:00.372Z,200.00
2019-02-26T10:47:01.218Z,200.00
2019-02-26T10:48:01.690Z,204.00
2019-02-26T10:49:00.307Z,204.00
2019-02-26T10:50:00.349Z,204.00
2019-02-26T10:51:00.594Z,204.00
2019-02-26T10:52:00.306Z,200.00
2019-02-26T10:53:06.971Z,204.00
2019-02-26T10:54:02.611Z,200.00
2019-02-26T10:55:00.315Z,200.00
2019-02-26T10:56:00.265Z,204.00
2019-02-26T10:57:01.154Z,200.00
2019-02-26T10:58:04.806Z,200.00
2019-02-26T10:59:03.555Z,204.00
2019-02-26T11:00:02.520Z,200.00
2019-02-26T11:01:02.481Z,200.00
2019-02-26T11:02:02.424Z,204.00
2019-02-26T11:03:00.148Z,204.00
2019-02-26T11:04:00.141Z,204.00
2019-02-26T11:05:00.303Z,204.00
2019-02-26T11:06:00.136Z,204.00
2019-02-26T11:07:02.390Z,204.00
2019-02-26T11:08:02.954Z,204.00
2019-02-26T11:09:01.796Z,204.00
2019-02-26T11:10:00.100Z,204.00
2019-02-26T11:11:00.072Z,204.00
2019-02-26T11:12:00.802Z,208.00
2019-02-26T11:13:00.062Z,208.00
2019-02-26T11:14:00.048Z,208.00
2019-02-26T11:15:01.680Z,204.00
2019-02-26T11:16:03.012Z,208.00
2019-02-26T11:17:00.008Z,208.00
2019-02-26T11:18:00.003Z,208.00
2019-02-26T11:19:01.855Z,208.00
2019-02-26T11:20:01.158Z,212.00
2019-02-26T11:20:59.979Z,212.00
2019-02-26T11:22:01.050Z,212.00
2019-02-26T11:22:59.949Z,212.00
2019-02-26T11:24:00.740Z,212.00
2019-02-26T11:25:00.972Z,216.00
2019-02-26T11:25:59.904Z,212.00
2019-02-26T11:26:59.940Z,216.00
2019-02-26T11:28:02.071Z,184.00
2019-02-26T11:28:59.932Z,204.00
2019-02-26T11:30:01.809Z,212.00
2019-02-26T11:30:59.858Z,212.00
2019-02-26T11:32:01.690Z,216.00
2019-02-26T11:33:03.126Z,216.00
2019-02-26T11:34:03.253Z,216.00
2019-02-26T11:35:02.499Z,224.00
2019-02-26T11:35:59.802Z,220.00
2019-02-26T11:37:02.800Z,224.00
2019-02-26T11:37:59.770Z,224.00
2019-02-26T11:39:02.250Z,224.00
2019-02-26T11:41:13.587Z,232.00
2019-02-26T11:42:16.448Z,232.00
2019-02-26T11:43:16.896Z,232.00
2019-02-26T11:44:19.019Z,236.00
2019-02-26T11:45:16.614Z,236.00
2019-02-26T11:46:14.506Z,236.00
2019-02-26T11:47:16.646Z,236.00
2019-02-26T11:48:14.602Z,240.00
2019-02-26T11:49:16.946Z,240.00
2019-02-26T11:50:14.481Z,240.00
2019-02-26T11:51:16.828Z,240.00
2019-02-26T11:52:14.496Z,244.00
2019-02-26T11:53:14.783Z,244.00
2019-02-26T11:54:15.635Z,248.00
2019-02-26T11:55:14.427Z,248.00
2019-02-26T11:56:15.906Z,248.00
2019-02-26T11:57:15.373Z,248.00
2019-02-26T11:58:15.893Z,252.00
2019-02-26T11:59:16.381Z,256.00
2019-02-26T12:00:24.202Z,256.00
2019-02-26T12:01:14.358Z,256.00
2019-02-26T12:02:14.377Z,256.00
2019-02-26T12:03:14.356Z,256.00
2019-02-26T12:04:17.026Z,260.00
2019-02-26T12:05:14.319Z,260.00
2019-02-26T12:06:15.224Z,260.00
2019-02-26T12:07:14.306Z,260.00
2019-02-26T12:08:16.661Z,264.00
2019-02-26T12:09:16.169Z,268.00
2019-02-26T12:10:14.714Z,268.00
2019-02-26T12:11:17.819Z,268.00
2019-02-26T12:12:14.245Z,272.00
2019-02-26T12:13:15.078Z,272.00
2019-02-26T12:14:18.436Z,272.00
2019-02-26T12:15:15.235Z,272.00
2019-02-26T12:16:14.184Z,268.00
2019-02-26T12:17:14.199Z,272.00
2019-02-26T12:18:15.446Z,188.00
2019-02-26T12:19:14.275Z,192.00
2019-02-26T12:20:14.796Z,196.00
2019-02-26T12:21:14.256Z,200.00
2019-02-26T12:22:14.142Z,200.00
2019-02-26T12:23:16.164Z,204.00
2019-02-26T12:24:14.110Z,208.00
2019-02-26T12:25:14.121Z,212.00
2019-02-26T12:26:16.336Z,216.00
2019-02-26T12:27:18.037Z,220.00
2019-02-26T12:28:14.064Z,228.00
2019-02-26T12:29:16.004Z,232.00
2019-02-26T12:30:15.831Z,236.00
2019-02-26T12:31:14.061Z,244.00
2019-02-26T12:32:14.236Z,248.00
2019-02-26T12:33:14.779Z,252.00
2019-02-26T12:34:14.586Z,256.00
2019-02-26T12:35:15.899Z,264.00
2019-02-26T12:36:13.992Z,268.00
2019-02-26T12:37:13.968Z,276.00
2019-02-26T12:38:18.818Z,284.00
2019-02-26T12:39:16.160Z,288.00
2019-02-26T12:40:15.859Z,296.00
2019-02-26T12:41:15.877Z,292.00
2019-02-26T12:42:15.795Z,296.00
2019-02-26T12:43:16.286Z,308.00
2019-02-26T12:44:16.139Z,312.00
2019-02-26T12:45:13.896Z,332.00
2019-02-26T12:46:13.867Z,340.00
2019-02-26T12:47:15.461Z,348.00
2019-02-26T12:48:16.206Z,356.00
2019-02-26T12:49:15.791Z,360.00
2019-02-26T12:50:13.839Z,372.00
2019-02-26T12:51:13.823Z,376.00
2019-02-26T12:52:15.195Z,384.00
2019-02-26T12:53:17.310Z,396.00